sensor_id;sensor_type;location;lat;lon;timestamp;P1;durP1;ratioP1;P2;durP2;ratioP2
50495;SDS011;38806;51.554;5.704;2023-04-24T00:01:41;16.10;;;10.60;;
50495;SDS011;38806;51.554;5.704;2023-04-24T00:03:42;13.50;;;9.02;;
50495;SDS011;38806;51.554;5.704;2023-04-24T00:05:42;15.93;;;10.68;;
50495;SDS011;38806;51.554;5.704;2023-04-24T00:07:43;16.55;;;10.52;;
50495;SDS011;38806;51.554;5.704;2023-04-24T00:09:44;18.58;;;12.35;;
50495;SDS011;38806;51.554;5.704;2023-04-24T00:11:44;17.75;;;11.23;;
50495;SDS011;38806;51.554;5.704;2023-04-24T00:13:44;20.75;;;12.23;;
50495;SDS011;38806;51.554;5.704;2023-04-24T00:15:45;14.18;;;10.55;;
50495;SDS011;38806;51.554;5.704;2023-04-24T00:17:45;21.92;;;12.98;;
50495;SDS011;38806;51.554;5.704;2023-04-24T00:19:49;20.35;;;11.55;;
50495;SDS011;38806;51.554;5.704;2023-04-24T00:21:51;18.98;;;12.13;;
50495;SDS011;38806;51.554;5.704;2023-04-24T00:23:51;21.75;;;12.73;;
50495;SDS011;38806;51.554;5.704;2023-04-24T00:25:51;19.33;;;13.00;;
50495;SDS011;38806;51.554;5.704;2023-04-24T00:27:51;20.05;;;12.43;;
50495;SDS011;38806;51.554;5.704;2023-04-24T00:29:51;29.58;;;15.02;;
50495;SDS011;38806;51.554;5.704;2023-04-24T00:31:52;22.75;;;14.45;;
50495;SDS011;38806;51.554;5.704;2023-04-24T00:33:52;24.67;;;13.70;;
50495;SDS011;38806;51.554;5.704;2023-04-24T00:35:52;22.20;;;13.88;;
50495;SDS011;38806;51.554;5.704;2023-04-24T00:37:52;22.80;;;14.43;;
50495;SDS011;38806;51.554;5.704;2023-04-24T00:39:52;23.50;;;14.70;;
50495;SDS011;38806;51.554;5.704;2023-04-24T00:41:53;25.02;;;14.55;;
50495;SDS011;38806;51.554;5.704;2023-04-24T00:43:53;29.05;;;16.00;;
50495;SDS011;38806;51.554;5.704;2023-04-24T00:45:53;25.23;;;16.67;;
50495;SDS011;38806;51.554;5.704;2023-04-24T00:47:54;21.02;;;15.00;;
50495;SDS011;38806;51.554;5.704;2023-04-24T00:49:55;26.23;;;17.08;;
50495;SDS011;38806;51.554;5.704;2023-04-24T00:51:55;27.88;;;18.80;;
50495;SDS011;38806;51.554;5.704;2023-04-24T00:53:56;33.58;;;17.25;;
50495;SDS011;38806;51.554;5.704;2023-04-24T00:55:56;31.30;;;17.90;;
50495;SDS011;38806;51.554;5.704;2023-04-24T00:57:57;28.60;;;19.52;;
50495;SDS011;38806;51.554;5.704;2023-04-24T00:59:58;27.90;;;18.90;;
50495;SDS011;38806;51.554;5.704;2023-04-24T01:01:58;33.72;;;18.52;;
50495;SDS011;38806;51.554;5.704;2023-04-24T01:03:58;29.80;;;17.95;;
50495;SDS011;38806;51.554;5.704;2023-04-24T01:05:58;31.88;;;18.65;;
50495;SDS011;38806;51.554;5.704;2023-04-24T01:07:59;27.50;;;18.23;;
50495;SDS011;38806;51.554;5.704;2023-04-24T01:09:59;31.90;;;18.65;;
50495;SDS011;38806;51.554;5.704;2023-04-24T01:12:00;32.08;;;20.70;;
50495;SDS011;38806;51.554;5.704;2023-04-24T01:14:00;34.08;;;20.02;;
50495;SDS011;38806;51.554;5.704;2023-04-24T01:16:01;39.88;;;22.08;;
50495;SDS011;38806;51.554;5.704;2023-04-24T01:18:01;33.83;;;20.90;;
50495;SDS011;38806;51.554;5.704;2023-04-24T01:20:02;33.42;;;21.05;;
50495;SDS011;38806;51.554;5.704;2023-04-24T01:22:15;34.55;;;19.98;;
50495;SDS011;38806;51.554;5.704;2023-04-24T01:24:16;35.65;;;21.65;;
50495;SDS011;38806;51.554;5.704;2023-04-24T01:26:16;32.92;;;21.00;;
50495;SDS011;38806;51.554;5.704;2023-04-24T01:28:17;35.50;;;20.40;;
50495;SDS011;38806;51.554;5.704;2023-04-24T01:30:17;36.60;;;21.58;;
50495;SDS011;38806;51.554;5.704;2023-04-24T01:32:18;40.25;;;22.70;;
50495;SDS011;38806;51.554;5.704;2023-04-24T01:34:18;34.10;;;21.83;;
50495;SDS011;38806;51.554;5.704;2023-04-24T01:36:19;35.50;;;21.38;;
50495;SDS011;38806;51.554;5.704;2023-04-24T01:38:19;38.70;;;23.02;;
50495;SDS011;38806;51.554;5.704;2023-04-24T01:40:20;47.95;;;22.35;;
50495;SDS011;38806;51.554;5.704;2023-04-24T01:42:20;38.45;;;22.27;;
50495;SDS011;38806;51.554;5.704;2023-04-24T01:44:21;33.45;;;22.17;;
50495;SDS011;38806;51.554;5.704;2023-04-24T01:46:21;41.40;;;22.85;;
50495;SDS011;38806;51.554;5.704;2023-04-24T01:48:22;42.30;;;23.65;;
50495;SDS011;38806;51.554;5.704;2023-04-24T01:50:22;38.28;;;23.85;;
50495;SDS011;38806;51.554;5.704;2023-04-24T01:52:22;41.33;;;23.23;;
50495;SDS011;38806;51.554;5.704;2023-04-24T01:54:22;43.85;;;24.73;;
50495;SDS011;38806;51.554;5.704;2023-04-24T01:56:22;38.70;;;25.27;;
50495;SDS011;38806;51.554;5.704;2023-04-24T01:58:23;41.17;;;24.70;;
50495;SDS011;38806;51.554;5.704;2023-04-24T02:00:23;43.50;;;26.48;;
50495;SDS011;38806;51.554;5.704;2023-04-24T02:02:24;42.97;;;27.65;;
50495;SDS011;38806;51.554;5.704;2023-04-24T02:04:27;46.20;;;26.73;;
50495;SDS011;38806;51.554;5.704;2023-04-24T02:06:27;51.50;;;28.05;;
50495;SDS011;38806;51.554;5.704;2023-04-24T02:08:27;45.10;;;27.10;;
50495;SDS011;38806;51.554;5.704;2023-04-24T02:10:27;46.23;;;26.50;;
50495;SDS011;38806;51.554;5.704;2023-04-24T02:12:27;47.90;;;27.48;;
50495;SDS011;38806;51.554;5.704;2023-04-24T02:14:28;45.25;;;27.45;;
50495;SDS011;38806;51.554;5.704;2023-04-24T02:16:28;51.92;;;28.85;;
50495;SDS011;38806;51.554;5.704;2023-04-24T02:18:32;46.80;;;28.25;;
50495;SDS011;38806;51.554;5.704;2023-04-24T02:20:32;51.28;;;26.65;;
50495;SDS011;38806;51.554;5.704;2023-04-24T02:22:34;46.30;;;27.98;;
50495;SDS011;38806;51.554;5.704;2023-04-24T02:24:34;42.72;;;27.48;;
50495;SDS011;38806;51.554;5.704;2023-04-24T02:26:34;45.75;;;28.05;;
50495;SDS011;38806;51.554;5.704;2023-04-24T02:28:35;51.78;;;26.83;;
50495;SDS011;38806;51.554;5.704;2023-04-24T02:30:35;52.10;;;28.17;;
50495;SDS011;38806;51.554;5.704;2023-04-24T02:32:35;60.60;;;30.42;;
50495;SDS011;38806;51.554;5.704;2023-04-24T02:34:35;46.20;;;27.63;;
50495;SDS011;38806;51.554;5.704;2023-04-24T02:36:36;50.08;;;29.25;;
50495;SDS011;38806;51.554;5.704;2023-04-24T02:38:36;53.63;;;29.35;;
50495;SDS011;38806;51.554;5.704;2023-04-24T02:40:36;53.53;;;30.48;;
50495;SDS011;38806;51.554;5.704;2023-04-24T02:42:36;54.22;;;28.83;;
50495;SDS011;38806;51.554;5.704;2023-04-24T02:44:36;51.83;;;28.65;;
50495;SDS011;38806;51.554;5.704;2023-04-24T02:46:36;53.10;;;32.42;;
50495;SDS011;38806;51.554;5.704;2023-04-24T02:48:37;53.53;;;29.77;;
50495;SDS011;38806;51.554;5.704;2023-04-24T02:50:37;46.92;;;27.02;;
50495;SDS011;38806;51.554;5.704;2023-04-24T02:52:37;50.25;;;29.35;;
50495;SDS011;38806;51.554;5.704;2023-04-24T02:54:37;55.65;;;30.10;;
50495;SDS011;38806;51.554;5.704;2023-04-24T02:56:37;48.03;;;28.38;;
50495;SDS011;38806;51.554;5.704;2023-04-24T02:58:38;47.50;;;27.90;;
50495;SDS011;38806;51.554;5.704;2023-04-24T03:00:38;57.65;;;28.98;;
50495;SDS011;38806;51.554;5.704;2023-04-24T03:02:38;50.75;;;29.95;;
50495;SDS011;38806;51.554;5.704;2023-04-24T03:04:38;57.22;;;30.50;;
50495;SDS011;38806;51.554;5.704;2023-04-24T03:06:39;59.15;;;31.92;;
50495;SDS011;38806;51.554;5.704;2023-04-24T03:08:40;53.08;;;30.38;;
50495;SDS011;38806;51.554;5.704;2023-04-24T03:10:40;50.97;;;30.83;;
50495;SDS011;38806;51.554;5.704;2023-04-24T03:12:40;56.90;;;30.75;;
50495;SDS011;38806;51.554;5.704;2023-04-24T03:14:40;56.92;;;32.85;;
50495;SDS011;38806;51.554;5.704;2023-04-24T03:16:40;52.78;;;30.02;;
50495;SDS011;38806;51.554;5.704;2023-04-24T03:18:40;48.97;;;27.35;;
50495;SDS011;38806;51.554;5.704;2023-04-24T03:20:41;54.63;;;31.80;;
50495;SDS011;38806;51.554;5.704;2023-04-24T03:22:41;48.28;;;29.45;;
50495;SDS011;38806;51.554;5.704;2023-04-24T03:24:41;57.92;;;32.33;;
50495;SDS011;38806;51.554;5.704;2023-04-24T03:26:41;51.47;;;31.08;;
50495;SDS011;38806;51.554;5.704;2023-04-24T03:28:41;51.10;;;29.23;;
50495;SDS011;38806;51.554;5.704;2023-04-24T03:30:42;47.15;;;27.05;;
50495;SDS011;38806;51.554;5.704;2023-04-24T03:32:42;52.50;;;28.92;;
50495;SDS011;38806;51.554;5.704;2023-04-24T03:34:42;50.72;;;28.67;;
50495;SDS011;38806;51.554;5.704;2023-04-24T03:36:42;43.08;;;26.75;;
50495;SDS011;38806;51.554;5.704;2023-04-24T03:38:42;44.95;;;27.10;;
50495;SDS011;38806;51.554;5.704;2023-04-24T03:40:43;47.63;;;25.30;;
50495;SDS011;38806;51.554;5.704;2023-04-24T03:42:43;48.80;;;29.08;;
50495;SDS011;38806;51.554;5.704;2023-04-24T03:44:43;38.65;;;23.40;;
50495;SDS011;38806;51.554;5.704;2023-04-24T03:46:43;43.85;;;24.55;;
50495;SDS011;38806;51.554;5.704;2023-04-24T03:48:43;44.22;;;26.00;;
50495;SDS011;38806;51.554;5.704;2023-04-24T03:50:44;48.67;;;26.42;;
50495;SDS011;38806;51.554;5.704;2023-04-24T03:52:44;40.75;;;25.02;;
50495;SDS011;38806;51.554;5.704;2023-04-24T03:54:44;39.65;;;23.55;;
50495;SDS011;38806;51.554;5.704;2023-04-24T03:56:44;45.58;;;24.73;;
50495;SDS011;38806;51.554;5.704;2023-04-24T03:58:45;42.65;;;24.02;;
50495;SDS011;38806;51.554;5.704;2023-04-24T04:00:45;37.88;;;25.17;;
50495;SDS011;38806;51.554;5.704;2023-04-24T04:02:47;45.22;;;24.65;;
50495;SDS011;38806;51.554;5.704;2023-04-24T04:04:47;40.78;;;22.63;;
50495;SDS011;38806;51.554;5.704;2023-04-24T04:06:48;37.28;;;21.73;;
50495;SDS011;38806;51.554;5.704;2023-04-24T04:08:48;39.28;;;21.45;;
50495;SDS011;38806;51.554;5.704;2023-04-24T04:10:49;30.63;;;21.23;;
50495;SDS011;38806;51.554;5.704;2023-04-24T04:12:49;39.40;;;22.38;;
50495;SDS011;38806;51.554;5.704;2023-04-24T04:14:49;36.60;;;22.98;;
50495;SDS011;38806;51.554;5.704;2023-04-24T04:16:49;37.65;;;21.38;;
50495;SDS011;38806;51.554;5.704;2023-04-24T04:18:50;33.55;;;19.40;;
50495;SDS011;38806;51.554;5.704;2023-04-24T04:20:50;41.65;;;23.35;;
50495;SDS011;38806;51.554;5.704;2023-04-24T04:22:50;37.42;;;20.77;;
50495;SDS011;38806;51.554;5.704;2023-04-24T04:24:50;30.30;;;17.70;;
50495;SDS011;38806;51.554;5.704;2023-04-24T04:26:51;34.78;;;19.58;;
50495;SDS011;38806;51.554;5.704;2023-04-24T04:28:52;33.75;;;20.58;;
50495;SDS011;38806;51.554;5.704;2023-04-24T04:30:53;35.67;;;19.83;;
50495;SDS011;38806;51.554;5.704;2023-04-24T04:32:57;36.03;;;21.23;;
50495;SDS011;38806;51.554;5.704;2023-04-24T04:34:57;32.17;;;20.52;;
50495;SDS011;38806;51.554;5.704;2023-04-24T04:36:58;28.33;;;18.60;;
50495;SDS011;38806;51.554;5.704;2023-04-24T04:39:01;29.27;;;17.85;;
50495;SDS011;38806;51.554;5.704;2023-04-24T04:41:02;32.03;;;18.85;;
50495;SDS011;38806;51.554;5.704;2023-04-24T04:43:02;28.98;;;17.65;;
50495;SDS011;38806;51.554;5.704;2023-04-24T04:45:03;32.70;;;17.92;;
50495;SDS011;38806;51.554;5.704;2023-04-24T04:47:04;29.50;;;17.52;;
50495;SDS011;38806;51.554;5.704;2023-04-24T04:49:07;29.73;;;16.90;;
50495;SDS011;38806;51.554;5.704;2023-04-24T04:51:08;28.20;;;16.63;;
50495;SDS011;38806;51.554;5.704;2023-04-24T04:53:08;27.45;;;16.50;;
50495;SDS011;38806;51.554;5.704;2023-04-24T04:55:08;29.88;;;17.85;;
50495;SDS011;38806;51.554;5.704;2023-04-24T04:57:09;26.75;;;16.92;;
50495;SDS011;38806;51.554;5.704;2023-04-24T04:59:09;26.20;;;17.20;;
50495;SDS011;38806;51.554;5.704;2023-04-24T05:01:09;23.73;;;15.35;;
50495;SDS011;38806;51.554;5.704;2023-04-24T05:03:09;25.33;;;15.52;;
50495;SDS011;38806;51.554;5.704;2023-04-24T05:05:10;25.30;;;15.10;;
50495;SDS011;38806;51.554;5.704;2023-04-24T05:07:10;25.65;;;15.95;;
50495;SDS011;38806;51.554;5.704;2023-04-24T05:09:10;22.50;;;14.90;;
50495;SDS011;38806;51.554;5.704;2023-04-24T05:11:11;21.45;;;13.50;;
50495;SDS011;38806;51.554;5.704;2023-04-24T05:13:11;22.60;;;13.88;;
50495;SDS011;38806;51.554;5.704;2023-04-24T05:15:11;26.83;;;15.80;;
50495;SDS011;38806;51.554;5.704;2023-04-24T05:17:11;27.90;;;15.57;;
50495;SDS011;38806;51.554;5.704;2023-04-24T05:19:11;25.67;;;12.73;;
50495;SDS011;38806;51.554;5.704;2023-04-24T05:21:13;23.65;;;13.98;;
50495;SDS011;38806;51.554;5.704;2023-04-24T05:23:14;24.73;;;14.32;;
50495;SDS011;38806;51.554;5.704;2023-04-24T05:25:14;21.38;;;13.73;;
50495;SDS011;38806;51.554;5.704;2023-04-24T05:27:14;22.15;;;13.45;;
50495;SDS011;38806;51.554;5.704;2023-04-24T05:29:15;22.95;;;13.57;;
50495;SDS011;38806;51.554;5.704;2023-04-24T05:31:15;24.30;;;14.40;;
50495;SDS011;38806;51.554;5.704;2023-04-24T05:33:17;23.35;;;15.45;;
50495;SDS011;38806;51.554;5.704;2023-04-24T05:35:17;25.27;;;14.40;;
50495;SDS011;38806;51.554;5.704;2023-04-24T05:37:18;24.35;;;13.68;;
50495;SDS011;38806;51.554;5.704;2023-04-24T05:39:18;20.10;;;12.30;;
50495;SDS011;38806;51.554;5.704;2023-04-24T05:41:19;20.92;;;13.38;;
50495;SDS011;38806;51.554;5.704;2023-04-24T05:43:21;23.42;;;12.23;;
50495;SDS011;38806;51.554;5.704;2023-04-24T05:45:21;18.52;;;11.13;;
50495;SDS011;38806;51.554;5.704;2023-04-24T05:47:21;23.95;;;13.13;;
50495;SDS011;38806;51.554;5.704;2023-04-24T05:49:22;19.25;;;12.30;;
50495;SDS011;38806;51.554;5.704;2023-04-24T05:51:22;19.60;;;12.80;;
50495;SDS011;38806;51.554;5.704;2023-04-24T05:53:22;20.13;;;12.70;;
50495;SDS011;38806;51.554;5.704;2023-04-24T05:55:22;19.05;;;11.85;;
50495;SDS011;38806;51.554;5.704;2023-04-24T05:57:23;20.70;;;11.60;;
50495;SDS011;38806;51.554;5.704;2023-04-24T05:59:23;23.38;;;12.57;;
50495;SDS011;38806;51.554;5.704;2023-04-24T06:01:23;19.02;;;11.43;;
50495;SDS011;38806;51.554;5.704;2023-04-24T06:03:25;16.10;;;9.63;;
50495;SDS011;38806;51.554;5.704;2023-04-24T06:05:25;17.08;;;9.15;;
50495;SDS011;38806;51.554;5.704;2023-04-24T06:07:25;14.45;;;7.63;;
50495;SDS011;38806;51.554;5.704;2023-04-24T06:09:28;15.30;;;7.80;;
50495;SDS011;38806;51.554;5.704;2023-04-24T06:11:28;11.50;;;5.95;;
50495;SDS011;38806;51.554;5.704;2023-04-24T06:13:29;15.10;;;6.88;;
50495;SDS011;38806;51.554;5.704;2023-04-24T06:15:29;11.70;;;6.28;;
50495;SDS011;38806;51.554;5.704;2023-04-24T06:17:32;12.25;;;6.53;;
50495;SDS011;38806;51.554;5.704;2023-04-24T06:19:32;12.27;;;6.63;;
50495;SDS011;38806;51.554;5.704;2023-04-24T06:21:33;13.48;;;6.88;;
50495;SDS011;38806;51.554;5.704;2023-04-24T06:23:33;11.25;;;6.95;;
50495;SDS011;38806;51.554;5.704;2023-04-24T06:25:33;12.70;;;7.43;;
50495;SDS011;38806;51.554;5.704;2023-04-24T06:27:33;13.80;;;7.25;;
50495;SDS011;38806;51.554;5.704;2023-04-24T06:29:33;13.43;;;8.43;;
50495;SDS011;38806;51.554;5.704;2023-04-24T06:31:34;12.85;;;7.93;;
50495;SDS011;38806;51.554;5.704;2023-04-24T06:33:36;11.05;;;7.80;;
50495;SDS011;38806;51.554;5.704;2023-04-24T06:35:37;11.98;;;7.22;;
50495;SDS011;38806;51.554;5.704;2023-04-24T06:37:41;11.98;;;7.97;;
50495;SDS011;38806;51.554;5.704;2023-04-24T06:39:41;12.82;;;8.20;;
50495;SDS011;38806;51.554;5.704;2023-04-24T06:41:42;15.18;;;7.75;;
50495;SDS011;38806;51.554;5.704;2023-04-24T06:43:42;16.90;;;7.75;;
50495;SDS011;38806;51.554;5.704;2023-04-24T06:45:42;13.98;;;7.75;;
50495;SDS011;38806;51.554;5.704;2023-04-24T06:47:43;15.27;;;8.55;;
50495;SDS011;38806;51.554;5.704;2023-04-24T06:49:44;12.70;;;8.00;;
50495;SDS011;38806;51.554;5.704;2023-04-24T06:51:44;12.77;;;7.63;;
50495;SDS011;38806;51.554;5.704;2023-04-24T06:53:44;15.55;;;8.60;;
50495;SDS011;38806;51.554;5.704;2023-04-24T06:55:44;13.63;;;7.45;;
50495;SDS011;38806;51.554;5.704;2023-04-24T06:57:46;12.82;;;7.65;;
50495;SDS011;38806;51.554;5.704;2023-04-24T06:59:46;13.25;;;8.27;;
50495;SDS011;38806;51.554;5.704;2023-04-24T07:01:46;14.38;;;8.23;;
50495;SDS011;38806;51.554;5.704;2023-04-24T07:03:46;12.57;;;8.50;;
50495;SDS011;38806;51.554;5.704;2023-04-24T07:05:46;15.63;;;8.38;;
50495;SDS011;38806;51.554;5.704;2023-04-24T07:07:48;11.77;;;7.72;;
50495;SDS011;38806;51.554;5.704;2023-04-24T07:09:49;9.98;;;6.22;;
50495;SDS011;38806;51.554;5.704;2023-04-24T07:11:51;11.10;;;6.80;;
50495;SDS011;38806;51.554;5.704;2023-04-24T07:13:51;11.50;;;6.88;;
50495;SDS011;38806;51.554;5.704;2023-04-24T07:15:51;12.95;;;6.88;;
50495;SDS011;38806;51.554;5.704;2023-04-24T07:17:53;11.45;;;6.80;;
50495;SDS011;38806;51.554;5.704;2023-04-24T07:19:54;10.45;;;6.75;;
50495;SDS011;38806;51.554;5.704;2023-04-24T07:21:54;12.52;;;7.78;;
50495;SDS011;38806;51.554;5.704;2023-04-24T07:23:55;13.73;;;9.00;;
50495;SDS011;38806;51.554;5.704;2023-04-24T07:25:55;19.60;;;12.18;;
50495;SDS011;38806;51.554;5.704;2023-04-24T07:27:55;25.67;;;12.70;;
50495;SDS011;38806;51.554;5.704;2023-04-24T07:29:55;26.65;;;14.85;;
50495;SDS011;38806;51.554;5.704;2023-04-24T07:31:55;22.48;;;14.30;;
50495;SDS011;38806;51.554;5.704;2023-04-24T07:33:56;23.92;;;15.95;;
50495;SDS011;38806;51.554;5.704;2023-04-24T07:35:58;29.05;;;16.92;;
50495;SDS011;38806;51.554;5.704;2023-04-24T07:37:58;31.05;;;18.42;;
50495;SDS011;38806;51.554;5.704;2023-04-24T07:39:58;30.75;;;18.40;;
50495;SDS011;38806;51.554;5.704;2023-04-24T07:41:59;27.42;;;17.35;;
50495;SDS011;38806;51.554;5.704;2023-04-24T07:43:59;27.05;;;17.05;;
50495;SDS011;38806;51.554;5.704;2023-04-24T07:45:59;31.08;;;18.20;;
50495;SDS011;38806;51.554;5.704;2023-04-24T07:47:59;27.38;;;17.10;;
50495;SDS011;38806;51.554;5.704;2023-04-24T07:50:00;28.98;;;14.55;;
50495;SDS011;38806;51.554;5.704;2023-04-24T07:52:00;28.60;;;17.48;;
50495;SDS011;38806;51.554;5.704;2023-04-24T07:54:02;28.48;;;16.30;;
50495;SDS011;38806;51.554;5.704;2023-04-24T07:56:02;31.63;;;15.85;;
50495;SDS011;38806;51.554;5.704;2023-04-24T07:58:02;26.77;;;14.90;;
50495;SDS011;38806;51.554;5.704;2023-04-24T08:00:03;37.05;;;15.32;;
50495;SDS011;38806;51.554;5.704;2023-04-24T08:02:04;24.95;;;16.83;;
50495;SDS011;38806;51.554;5.704;2023-04-24T08:04:04;29.48;;;17.52;;
50495;SDS011;38806;51.554;5.704;2023-04-24T08:06:04;29.35;;;19.65;;
50495;SDS011;38806;51.554;5.704;2023-04-24T08:08:05;34.60;;;17.17;;
50495;SDS011;38806;51.554;5.704;2023-04-24T08:10:05;30.52;;;16.98;;
50495;SDS011;38806;51.554;5.704;2023-04-24T08:12:05;29.10;;;16.08;;
50495;SDS011;38806;51.554;5.704;2023-04-24T08:14:06;28.08;;;15.60;;
50495;SDS011;38806;51.554;5.704;2023-04-24T08:16:06;29.77;;;14.77;;
50495;SDS011;38806;51.554;5.704;2023-04-24T08:18:06;24.85;;;13.13;;
50495;SDS011;38806;51.554;5.704;2023-04-24T08:20:08;26.95;;;14.30;;
50495;SDS011;38806;51.554;5.704;2023-04-24T08:22:16;27.73;;;13.80;;
50495;SDS011;38806;51.554;5.704;2023-04-24T08:24:16;28.50;;;13.38;;
50495;SDS011;38806;51.554;5.704;2023-04-24T08:26:17;25.58;;;12.93;;
50495;SDS011;38806;51.554;5.704;2023-04-24T08:28:17;32.80;;;13.48;;
50495;SDS011;38806;51.554;5.704;2023-04-24T08:30:20;28.67;;;12.63;;
50495;SDS011;38806;51.554;5.704;2023-04-24T08:32:21;29.40;;;13.48;;
50495;SDS011;38806;51.554;5.704;2023-04-24T08:34:21;21.55;;;11.23;;
50495;SDS011;38806;51.554;5.704;2023-04-24T08:36:21;32.92;;;14.07;;
50495;SDS011;38806;51.554;5.704;2023-04-24T08:38:22;28.02;;;11.63;;
50495;SDS011;38806;51.554;5.704;2023-04-24T08:40:23;23.20;;;11.45;;
50495;SDS011;38806;51.554;5.704;2023-04-24T08:42:26;20.70;;;9.88;;
50495;SDS011;38806;51.554;5.704;2023-04-24T08:44:28;20.63;;;9.52;;
50495;SDS011;38806;51.554;5.704;2023-04-24T08:46:28;21.25;;;8.80;;
50495;SDS011;38806;51.554;5.704;2023-04-24T08:48:29;18.08;;;9.45;;
50495;SDS011;38806;51.554;5.704;2023-04-24T08:50:30;19.00;;;9.05;;
50495;SDS011;38806;51.554;5.704;2023-04-24T08:52:34;15.73;;;6.30;;
50495;SDS011;38806;51.554;5.704;2023-04-24T08:54:35;17.52;;;6.97;;
50495;SDS011;38806;51.554;5.704;2023-04-24T08:56:36;17.40;;;6.93;;
50495;SDS011;38806;51.554;5.704;2023-04-24T08:58:39;19.42;;;7.75;;
50495;SDS011;38806;51.554;5.704;2023-04-24T09:00:39;21.92;;;6.93;;
50495;SDS011;38806;51.554;5.704;2023-04-24T09:02:44;16.45;;;7.63;;
50495;SDS011;38806;51.554;5.704;2023-04-24T09:04:46;16.23;;;6.22;;
50495;SDS011;38806;51.554;5.704;2023-04-24T09:06:47;15.75;;;7.60;;
50495;SDS011;38806;51.554;5.704;2023-04-24T09:08:48;18.30;;;8.25;;
50495;SDS011;38806;51.554;5.704;2023-04-24T09:10:49;13.95;;;6.78;;
50495;SDS011;38806;51.554;5.704;2023-04-24T09:12:52;19.45;;;7.07;;
50495;SDS011;38806;51.554;5.704;2023-04-24T09:14:54;16.83;;;7.35;;
50495;SDS011;38806;51.554;5.704;2023-04-24T09:16:55;25.15;;;7.88;;
50495;SDS011;38806;51.554;5.704;2023-04-24T09:18:55;13.73;;;7.00;;
50495;SDS011;38806;51.554;5.704;2023-04-24T09:22:58;20.52;;;8.38;;
50495;SDS011;38806;51.554;5.704;2023-04-24T09:24:59;20.90;;;7.63;;
50495;SDS011;38806;51.554;5.704;2023-04-24T09:26:59;15.10;;;6.80;;
50495;SDS011;38806;51.554;5.704;2023-04-24T09:29:01;14.27;;;7.65;;
50495;SDS011;38806;51.554;5.704;2023-04-24T09:31:02;21.13;;;7.22;;
50495;SDS011;38806;51.554;5.704;2023-04-24T09:33:09;18.08;;;7.13;;
50495;SDS011;38806;51.554;5.704;2023-04-24T09:35:10;17.13;;;6.82;;
50495;SDS011;38806;51.554;5.704;2023-04-24T09:37:11;18.23;;;6.90;;
50495;SDS011;38806;51.554;5.704;2023-04-24T09:39:12;15.82;;;7.00;;
50495;SDS011;38806;51.554;5.704;2023-04-24T09:41:15;13.15;;;6.05;;
50495;SDS011;38806;51.554;5.704;2023-04-24T09:43:15;13.45;;;5.63;;
50495;SDS011;38806;51.554;5.704;2023-04-24T09:45:15;14.55;;;5.50;;
50495;SDS011;38806;51.554;5.704;2023-04-24T09:47:16;18.33;;;5.03;;
50495;SDS011;38806;51.554;5.704;2023-04-24T09:49:22;16.85;;;6.13;;
50495;SDS011;38806;51.554;5.704;2023-04-24T09:51:33;16.60;;;5.40;;
50495;SDS011;38806;51.554;5.704;2023-04-24T09:53:33;11.35;;;4.60;;
50495;SDS011;38806;51.554;5.704;2023-04-24T09:55:35;14.18;;;4.38;;
50495;SDS011;38806;51.554;5.704;2023-04-24T09:57:58;14.75;;;5.63;;
50495;SDS011;38806;51.554;5.704;2023-04-24T10:00:00;13.10;;;4.25;;
50495;SDS011;38806;51.554;5.704;2023-04-24T10:02:00;17.42;;;5.53;;
50495;SDS011;38806;51.554;5.704;2023-04-24T10:04:00;12.10;;;5.65;;
50495;SDS011;38806;51.554;5.704;2023-04-24T10:06:01;10.48;;;5.15;;
50495;SDS011;38806;51.554;5.704;2023-04-24T10:08:02;15.40;;;4.65;;
50495;SDS011;38806;51.554;5.704;2023-04-24T10:10:03;13.15;;;4.40;;
50495;SDS011;38806;51.554;5.704;2023-04-24T10:12:04;12.35;;;5.03;;
50495;SDS011;38806;51.554;5.704;2023-04-24T10:14:04;12.63;;;4.20;;
50495;SDS011;38806;51.554;5.704;2023-04-24T10:16:04;12.15;;;5.25;;
50495;SDS011;38806;51.554;5.704;2023-04-24T10:18:05;15.35;;;5.65;;
50495;SDS011;38806;51.554;5.704;2023-04-24T10:20:06;15.90;;;6.13;;
50495;SDS011;38806;51.554;5.704;2023-04-24T10:22:06;18.52;;;5.32;;
50495;SDS011;38806;51.554;5.704;2023-04-24T10:24:07;13.10;;;5.00;;
50495;SDS011;38806;51.554;5.704;2023-04-24T10:26:08;12.40;;;5.20;;
50495;SDS011;38806;51.554;5.704;2023-04-24T10:28:09;13.73;;;5.00;;
50495;SDS011;38806;51.554;5.704;2023-04-24T10:30:10;13.50;;;3.97;;
50495;SDS011;38806;51.554;5.704;2023-04-24T10:32:11;13.43;;;4.18;;
50495;SDS011;38806;51.554;5.704;2023-04-24T10:34:11;13.82;;;4.60;;
50495;SDS011;38806;51.554;5.704;2023-04-24T10:36:11;14.27;;;4.50;;
50495;SDS011;38806;51.554;5.704;2023-04-24T10:38:14;11.35;;;4.50;;
50495;SDS011;38806;51.554;5.704;2023-04-24T10:40:17;11.43;;;3.92;;
50495;SDS011;38806;51.554;5.704;2023-04-24T10:42:17;7.35;;;2.22;;
50495;SDS011;38806;51.554;5.704;2023-04-24T10:44:17;7.43;;;4.00;;
50495;SDS011;38806;51.554;5.704;2023-04-24T10:46:21;6.95;;;2.80;;
50495;SDS011;38806;51.554;5.704;2023-04-24T10:48:25;4.32;;;2.67;;
50495;SDS011;38806;51.554;5.704;2023-04-24T10:50:29;6.32;;;2.05;;
50495;SDS011;38806;51.554;5.704;2023-04-24T10:52:45;5.10;;;2.15;;
50495;SDS011;38806;51.554;5.704;2023-04-24T10:54:46;4.97;;;1.77;;
50495;SDS011;38806;51.554;5.704;2023-04-24T10:56:46;3.33;;;1.67;;
50495;SDS011;38806;51.554;5.704;2023-04-24T10:58:50;5.38;;;2.22;;
50495;SDS011;38806;51.554;5.704;2023-04-24T11:00:55;5.00;;;1.88;;
50495;SDS011;38806;51.554;5.704;2023-04-24T11:02:56;5.00;;;2.22;;
50495;SDS011;38806;51.554;5.704;2023-04-24T11:04:57;7.60;;;2.30;;
50495;SDS011;38806;51.554;5.704;2023-04-24T11:06:57;7.93;;;1.80;;
50495;SDS011;38806;51.554;5.704;2023-04-24T11:09:04;4.85;;;1.77;;
50495;SDS011;38806;51.554;5.704;2023-04-24T11:11:10;10.93;;;1.65;;
50495;SDS011;38806;51.554;5.704;2023-04-24T11:13:10;4.10;;;1.70;;
50495;SDS011;38806;51.554;5.704;2023-04-24T11:15:13;6.28;;;2.13;;
50495;SDS011;38806;51.554;5.704;2023-04-24T11:17:36;4.68;;;1.95;;
50495;SDS011;38806;51.554;5.704;2023-04-24T11:19:38;7.28;;;2.95;;
50495;SDS011;38806;51.554;5.704;2023-04-24T11:21:48;5.80;;;1.20;;
50495;SDS011;38806;51.554;5.704;2023-04-24T11:23:48;4.15;;;1.40;;
50495;SDS011;38806;51.554;5.704;2023-04-24T11:26:07;4.32;;;1.92;;
50495;SDS011;38806;51.554;5.704;2023-04-24T11:28:09;5.38;;;1.80;;
50495;SDS011;38806;51.554;5.704;2023-04-24T11:30:16;6.13;;;1.33;;
50495;SDS011;38806;51.554;5.704;2023-04-24T11:34:23;7.70;;;1.42;;
50495;SDS011;38806;51.554;5.704;2023-04-24T11:36:24;7.88;;;1.83;;
50495;SDS011;38806;51.554;5.704;2023-04-24T11:38:25;10.60;;;2.45;;
50495;SDS011;38806;51.554;5.704;2023-04-24T11:40:25;4.90;;;2.15;;
50495;SDS011;38806;51.554;5.704;2023-04-24T11:42:25;4.05;;;1.98;;
50495;SDS011;38806;51.554;5.704;2023-04-24T11:44:26;4.13;;;0.90;;
50495;SDS011;38806;51.554;5.704;2023-04-24T11:46:27;4.63;;;1.23;;
50495;SDS011;38806;51.554;5.704;2023-04-24T11:48:27;5.20;;;1.10;;
50495;SDS011;38806;51.554;5.704;2023-04-24T11:50:27;5.70;;;1.30;;
50495;SDS011;38806;51.554;5.704;2023-04-24T11:52:29;4.55;;;1.77;;
50495;SDS011;38806;51.554;5.704;2023-04-24T11:54:30;4.68;;;1.30;;
50495;SDS011;38806;51.554;5.704;2023-04-24T11:56:30;8.45;;;1.25;;
50495;SDS011;38806;51.554;5.704;2023-04-24T11:58:37;7.00;;;1.90;;